sensor_id;sensor_type;location;lat;lon;timestamp;temperature;humidity
52859;DHT22;38721;53.098;6.596;2023-05-10T00:00:24;13.60;99.90
52859;DHT22;38721;53.098;6.596;2023-05-10T00:02:50;13.50;99.90
52859;DHT22;38721;53.098;6.596;2023-05-10T00:05:15;13.50;99.90
52859;DHT22;38721;53.098;6.596;2023-05-10T00:07:41;13.50;99.90
52859;DHT22;38721;53.098;6.596;2023-05-10T00:10:10;13.40;99.90
52859;DHT22;38721;53.098;6.596;2023-05-10T00:12:36;13.40;99.90
52859;DHT22;38721;53.098;6.596;2023-05-10T00:15:02;13.40;99.90
52859;DHT22;38721;53.098;6.596;2023-05-10T00:17:28;13.30;99.90
52859;DHT22;38721;53.098;6.596;2023-05-10T00:19:54;13.30;99.90
52859;DHT22;38721;53.098;6.596;2023-05-10T00:22:20;13.30;99.90
52859;DHT22;38721;53.098;6.596;2023-05-10T00:24:46;13.30;99.90
52859;DHT22;38721;53.098;6.596;2023-05-10T00:27:11;13.30;99.90
52859;DHT22;38721;53.098;6.596;2023-05-10T00:29:37;13.30;99.90
52859;DHT22;38721;53.098;6.596;2023-05-10T00:32:03;13.30;99.90
52859;DHT22;38721;53.098;6.596;2023-05-10T00:34:28;13.30;99.90
52859;DHT22;38721;53.098;6.596;2023-05-10T00:36:54;13.30;99.90
52859;DHT22;38721;53.098;6.596;2023-05-10T00:39:20;13.30;99.90
52859;DHT22;38721;53.098;6.596;2023-05-10T00:41:46;13.40;99.90
52859;DHT22;38721;53.098;6.596;2023-05-10T00:44:11;13.40;99.90
52859;DHT22;38721;53.098;6.596;2023-05-10T00:46:37;13.40;99.90
52859;DHT22;38721;53.098;6.596;2023-05-10T00:49:03;13.40;99.90
52859;DHT22;38721;53.098;6.596;2023-05-10T00:51:29;13.40;99.90
52859;DHT22;38721;53.098;6.596;2023-05-10T00:53:56;13.40;99.90
52859;DHT22;38721;53.098;6.596;2023-05-10T00:56:22;13.40;99.90
52859;DHT22;38721;53.098;6.596;2023-05-10T00:58:50;13.40;99.90
52859;DHT22;38721;53.098;6.596;2023-05-10T01:01:15;13.40;99.90
52859;DHT22;38721;53.098;6.596;2023-05-10T01:03:41;13.40;99.90
52859;DHT22;38721;53.098;6.596;2023-05-10T01:06:07;13.40;99.90
52859;DHT22;38721;53.098;6.596;2023-05-10T01:08:33;13.30;99.90
52859;DHT22;38721;53.098;6.596;2023-05-10T01:10:59;13.30;99.90
52859;DHT22;38721;53.098;6.596;2023-05-10T01:13:32;13.30;99.90
52859;DHT22;38721;53.098;6.596;2023-05-10T01:15:59;13.30;99.90
52859;DHT22;38721;53.098;6.596;2023-05-10T01:18:28;13.30;99.90
52859;DHT22;38721;53.098;6.596;2023-05-10T01:21:23;13.30;99.90
52859;DHT22;38721;53.098;6.596;2023-05-10T01:32:32;13.30;99.90
52859;DHT22;38721;53.098;6.596;2023-05-10T01:35:07;13.30;99.90
52859;DHT22;38721;53.098;6.596;2023-05-10T01:37:42;13.30;99.90
52859;DHT22;38721;53.098;6.596;2023-05-10T01:42:48;13.30;99.90
52859;DHT22;38721;53.098;6.596;2023-05-10T01:45:24;13.30;99.90
52859;DHT22;38721;53.098;6.596;2023-05-10T01:48:05;13.30;99.90
52859;DHT22;38721;53.098;6.596;2023-05-10T01:50:32;13.30;99.90
52859;DHT22;38721;53.098;6.596;2023-05-10T01:53:01;13.30;99.90
52859;DHT22;38721;53.098;6.596;2023-05-10T01:55:30;13.20;99.90
52859;DHT22;38721;53.098;6.596;2023-05-10T01:58:13;13.20;99.90
52859;DHT22;38721;53.098;6.596;2023-05-10T02:00:46;13.10;99.90
52859;DHT22;38721;53.098;6.596;2023-05-10T02:03:13;13.00;99.90
52859;DHT22;38721;53.098;6.596;2023-05-10T02:05:41;13.00;99.90
52859;DHT22;38721;53.098;6.596;2023-05-10T02:08:13;13.00;99.90
52859;DHT22;38721;53.098;6.596;2023-05-10T02:10:42;13.00;99.90
52859;DHT22;38721;53.098;6.596;2023-05-10T02:13:09;13.00;99.90
52859;DHT22;38721;53.098;6.596;2023-05-10T02:15:36;13.00;99.90
52859;DHT22;38721;53.098;6.596;2023-05-10T02:18:04;13.00;99.90
52859;DHT22;38721;53.098;6.596;2023-05-10T02:20:31;13.00;99.90
52859;DHT22;38721;53.098;6.596;2023-05-10T02:22:58;13.00;99.90
52859;DHT22;38721;53.098;6.596;2023-05-10T02:25:25;13.00;99.90
52859;DHT22;38721;53.098;6.596;2023-05-10T02:27:53;13.00;99.90
52859;DHT22;38721;53.098;6.596;2023-05-10T02:30:20;13.00;99.90
52859;DHT22;38721;53.098;6.596;2023-05-10T02:32:47;12.90;99.90
52859;DHT22;38721;53.098;6.596;2023-05-10T02:35:15;12.90;99.90
52859;DHT22;38721;53.098;6.596;2023-05-10T02:37:41;12.90;99.90
52859;DHT22;38721;53.098;6.596;2023-05-10T02:40:08;12.90;99.90
52859;DHT22;38721;53.098;6.596;2023-05-10T02:42:37;12.90;99.90
52859;DHT22;38721;53.098;6.596;2023-05-10T02:45:08;12.90;99.90
52859;DHT22;38721;53.098;6.596;2023-05-10T02:47:36;12.90;99.90
52859;DHT22;38721;53.098;6.596;2023-05-10T02:50:05;13.00;99.90
52859;DHT22;38721;53.098;6.596;2023-05-10T02:52:46;13.00;99.90
52859;DHT22;38721;53.098;6.596;2023-05-10T02:55:14;12.90;99.90
52859;DHT22;38721;53.098;6.596;2023-05-10T02:57:46;13.00;99.90
52859;DHT22;38721;53.098;6.596;2023-05-10T03:00:14;12.90;99.90
52859;DHT22;38721;53.098;6.596;2023-05-10T03:02:40;12.90;99.90
52859;DHT22;38721;53.098;6.596;2023-05-10T03:05:06;12.90;99.90
52859;DHT22;38721;53.098;6.596;2023-05-10T03:07:32;12.90;99.90
52859;DHT22;38721;53.098;6.596;2023-05-10T03:09:59;12.90;99.90
52859;DHT22;38721;53.098;6.596;2023-05-10T03:18:22;12.90;99.90
52859;DHT22;38721;53.098;6.596;2023-05-10T03:21:02;12.90;99.90
52859;DHT22;38721;53.098;6.596;2023-05-10T03:23:42;12.90;99.90
52859;DHT22;38721;53.098;6.596;2023-05-10T03:26:08;12.90;99.90
52859;DHT22;38721;53.098;6.596;2023-05-10T03:28:35;12.90;99.90
52859;DHT22;38721;53.098;6.596;2023-05-10T03:31:03;12.90;99.90
52859;DHT22;38721;53.098;6.596;2023-05-10T03:33:29;12.90;99.90
52859;DHT22;38721;53.098;6.596;2023-05-10T03:35:55;12.90;99.90
52859;DHT22;38721;53.098;6.596;2023-05-10T03:38:20;12.90;99.90
52859;DHT22;38721;53.098;6.596;2023-05-10T03:40:46;12.90;99.90
52859;DHT22;38721;53.098;6.596;2023-05-10T03:43:12;12.90;99.90
52859;DHT22;38721;53.098;6.596;2023-05-10T03:45:37;12.90;99.90
52859;DHT22;38721;53.098;6.596;2023-05-10T03:48:03;12.90;99.90
52859;DHT22;38721;53.098;6.596;2023-05-10T03:50:29;12.90;99.90
52859;DHT22;38721;53.098;6.596;2023-05-10T03:52:54;12.90;99.90
52859;DHT22;38721;53.098;6.596;2023-05-10T03:55:23;12.90;99.90
52859;DHT22;38721;53.098;6.596;2023-05-10T03:57:49;12.90;99.90
52859;DHT22;38721;53.098;6.596;2023-05-10T04:00:19;12.90;99.90
52859;DHT22;38721;53.098;6.596;2023-05-10T04:02:44;12.90;99.90
52859;DHT22;38721;53.098;6.596;2023-05-10T04:05:10;12.90;99.90
52859;DHT22;38721;53.098;6.596;2023-05-10T04:07:36;12.90;99.90
52859;DHT22;38721;53.098;6.596;2023-05-10T04:10:02;12.90;99.90
52859;DHT22;38721;53.098;6.596;2023-05-10T04:12:27;12.90;99.90
52859;DHT22;38721;53.098;6.596;2023-05-10T04:14:53;12.90;99.90
52859;DHT22;38721;53.098;6.596;2023-05-10T04:17:19;12.90;99.90
52859;DHT22;38721;53.098;6.596;2023-05-10T04:19:44;12.90;99.90
52859;DHT22;38721;53.098;6.596;2023-05-10T04:22:10;12.90;99.90
52859;DHT22;38721;53.098;6.596;2023-05-10T04:24:36;12.90;99.90
52859;DHT22;38721;53.098;6.596;2023-05-10T04:27:01;12.90;99.90
52859;DHT22;38721;53.098;6.596;2023-05-10T04:29:27;12.80;99.90
52859;DHT22;38721;53.098;6.596;2023-05-10T04:31:56;12.80;99.90
52859;DHT22;38721;53.098;6.596;2023-05-10T04:34:22;12.80;99.90
52859;DHT22;38721;53.098;6.596;2023-05-10T04:36:47;12.80;99.90
52859;DHT22;38721;53.098;6.596;2023-05-10T04:39:13;12.90;99.90
52859;DHT22;38721;53.098;6.596;2023-05-10T04:41:39;12.80;99.90
52859;DHT22;38721;53.098;6.596;2023-05-10T04:44:05;12.80;99.90
52859;DHT22;38721;53.098;6.596;2023-05-10T04:46:30;12.80;99.90
52859;DHT22;38721;53.098;6.596;2023-05-10T04:48:59;12.90;99.90
52859;DHT22;38721;53.098;6.596;2023-05-10T04:51:25;12.80;99.90
52859;DHT22;38721;53.098;6.596;2023-05-10T04:53:50;12.80;99.90
52859;DHT22;38721;53.098;6.596;2023-05-10T04:56:16;12.90;99.90
52859;DHT22;38721;53.098;6.596;2023-05-10T04:58:42;12.80;99.90
52859;DHT22;38721;53.098;6.596;2023-05-10T05:01:08;12.80;99.90
52859;DHT22;38721;53.098;6.596;2023-05-10T05:03:34;12.80;99.90
52859;DHT22;38721;53.098;6.596;2023-05-10T05:06:01;12.90;99.90
52859;DHT22;38721;53.098;6.596;2023-05-10T05:08:26;12.80;99.90
52859;DHT22;38721;53.098;6.596;2023-05-10T05:10:52;12.80;99.90
52859;DHT22;38721;53.098;6.596;2023-05-10T05:13:18;12.70;99.90
52859;DHT22;38721;53.098;6.596;2023-05-10T05:15:44;12.80;99.90
52859;DHT22;38721;53.098;6.596;2023-05-10T05:18:09;12.80;99.90
52859;DHT22;38721;53.098;6.596;2023-05-10T05:20:35;12.70;99.90
52859;DHT22;38721;53.098;6.596;2023-05-10T05:23:03;12.70;99.90
52859;DHT22;38721;53.098;6.596;2023-05-10T05:25:29;12.80;99.90
52859;DHT22;38721;53.098;6.596;2023-05-10T05:27:54;12.80;99.90
52859;DHT22;38721;53.098;6.596;2023-05-10T05:30:20;12.80;99.90
52859;DHT22;38721;53.098;6.596;2023-05-10T05:32:45;12.80;99.90
52859;DHT22;38721;53.098;6.596;2023-05-10T05:35:12;12.80;99.90
52859;DHT22;38721;53.098;6.596;2023-05-10T05:37:38;12.80;99.90
52859;DHT22;38721;53.098;6.596;2023-05-10T05:40:05;12.80;99.90
52859;DHT22;38721;53.098;6.596;2023-05-10T05:42:31;12.80;99.90
52859;DHT22;38721;53.098;6.596;2023-05-10T05:45:00;12.80;99.90
52859;DHT22;38721;53.098;6.596;2023-05-10T05:47:25;12.80;99.90
52859;DHT22;38721;53.098;6.596;2023-05-10T05:49:51;12.80;99.90
52859;DHT22;38721;53.098;6.596;2023-05-10T05:52:16;12.80;99.90
52859;DHT22;38721;53.098;6.596;2023-05-10T05:54:42;12.80;99.90
52859;DHT22;38721;53.098;6.596;2023-05-10T05:57:08;12.80;99.90
52859;DHT22;38721;53.098;6.596;2023-05-10T05:59:34;12.80;99.90
52859;DHT22;38721;53.098;6.596;2023-05-10T06:02:00;12.80;99.90
52859;DHT22;38721;53.098;6.596;2023-05-10T06:04:26;12.80;99.90
52859;DHT22;38721;53.098;6.596;2023-05-10T06:06:52;12.70;99.90
52859;DHT22;38721;53.098;6.596;2023-05-10T06:09:17;12.80;99.90
52859;DHT22;38721;53.098;6.596;2023-05-10T06:11:43;12.80;99.90
52859;DHT22;38721;53.098;6.596;2023-05-10T06:14:08;12.80;99.90
52859;DHT22;38721;53.098;6.596;2023-05-10T06:16:34;12.80;99.90
52859;DHT22;38721;53.098;6.596;2023-05-10T06:19:00;12.80;99.90
52859;DHT22;38721;53.098;6.596;2023-05-10T06:21:26;12.80;99.90
52859;DHT22;38721;53.098;6.596;2023-05-10T06:23:51;12.90;99.90
52859;DHT22;38721;53.098;6.596;2023-05-10T06:26:17;12.80;99.90
52859;DHT22;38721;53.098;6.596;2023-05-10T06:28:43;12.80;99.90
52859;DHT22;38721;53.098;6.596;2023-05-10T06:31:08;12.80;99.90
52859;DHT22;38721;53.098;6.596;2023-05-10T06:33:34;12.80;99.90
52859;DHT22;38721;53.098;6.596;2023-05-10T06:36:00;12.80;99.90
52859;DHT22;38721;53.098;6.596;2023-05-10T06:38:26;12.80;99.90
52859;DHT22;38721;53.098;6.596;2023-05-10T06:40:52;12.80;99.90
52859;DHT22;38721;53.098;6.596;2023-05-10T06:43:18;12.70;99.90
52859;DHT22;38721;53.098;6.596;2023-05-10T06:45:44;12.70;99.90
52859;DHT22;38721;53.098;6.596;2023-05-10T06:48:09;12.80;99.90
52859;DHT22;38721;53.098;6.596;2023-05-10T06:50:35;12.80;99.90
52859;DHT22;38721;53.098;6.596;2023-05-10T06:53:01;12.80;99.90
52859;DHT22;38721;53.098;6.596;2023-05-10T06:55:29;12.70;99.90
52859;DHT22;38721;53.098;6.596;2023-05-10T06:57:55;12.80;99.90
52859;DHT22;38721;53.098;6.596;2023-05-10T07:00:21;12.80;99.90
52859;DHT22;38721;53.098;6.596;2023-05-10T07:02:47;12.70;99.90
52859;DHT22;38721;53.098;6.596;2023-05-10T07:05:13;12.70;99.90
52859;DHT22;38721;53.098;6.596;2023-05-10T07:07:39;12.70;99.90
52859;DHT22;38721;53.098;6.596;2023-05-10T07:10:05;12.70;99.90
52859;DHT22;38721;53.098;6.596;2023-05-10T07:12:31;12.70;99.90
52859;DHT22;38721;53.098;6.596;2023-05-10T07:14:57;12.80;99.90
52859;DHT22;38721;53.098;6.596;2023-05-10T07:17:22;12.70;99.90
52859;DHT22;38721;53.098;6.596;2023-05-10T07:19:48;12.80;99.90
52859;DHT22;38721;53.098;6.596;2023-05-10T07:22:14;12.80;99.90
52859;DHT22;38721;53.098;6.596;2023-05-10T07:24:41;12.80;99.90
52859;DHT22;38721;53.098;6.596;2023-05-10T07:27:06;12.90;99.90
52859;DHT22;38721;53.098;6.596;2023-05-10T07:29:32;13.00;99.90
52859;DHT22;38721;53.098;6.596;2023-05-10T07:31:58;13.00;99.90
52859;DHT22;38721;53.098;6.596;2023-05-10T07:34:24;13.10;99.90
52859;DHT22;38721;53.098;6.596;2023-05-10T07:36:49;13.20;99.90
52859;DHT22;38721;53.098;6.596;2023-05-10T07:39:15;13.20;99.90
52859;DHT22;38721;53.098;6.596;2023-05-10T07:41:42;13.30;99.90
52859;DHT22;38721;53.098;6.596;2023-05-10T07:44:07;13.30;99.90
52859;DHT22;38721;53.098;6.596;2023-05-10T07:46:33;13.30;99.90
52859;DHT22;38721;53.098;6.596;2023-05-10T07:48:59;13.20;99.90
52859;DHT22;38721;53.098;6.596;2023-05-10T07:51:25;13.10;99.90
52859;DHT22;38721;53.098;6.596;2023-05-10T07:53:50;13.10;99.90
52859;DHT22;38721;53.098;6.596;2023-05-10T07:56:28;13.00;99.90
52859;DHT22;38721;53.098;6.596;2023-05-10T07:58:56;12.90;99.90
52859;DHT22;38721;53.098;6.596;2023-05-10T08:01:22;13.00;99.90
52859;DHT22;38721;53.098;6.596;2023-05-10T08:03:48;13.00;99.90
52859;DHT22;38721;53.098;6.596;2023-05-10T08:06:18;13.10;99.90
52859;DHT22;38721;53.098;6.596;2023-05-10T08:08:46;13.00;99.90
52859;DHT22;38721;53.098;6.596;2023-05-10T08:11:15;12.90;99.90
52859;DHT22;38721;53.098;6.596;2023-05-10T08:13:41;13.00;99.90
52859;DHT22;38721;53.098;6.596;2023-05-10T08:16:07;13.00;99.90
52859;DHT22;38721;53.098;6.596;2023-05-10T08:18:35;13.10;99.90
52859;DHT22;38721;53.098;6.596;2023-05-10T08:21:01;13.00;99.90
52859;DHT22;38721;53.098;6.596;2023-05-10T08:23:26;13.00;99.90
52859;DHT22;38721;53.098;6.596;2023-05-10T08:25:52;13.10;99.90
52859;DHT22;38721;53.098;6.596;2023-05-10T08:28:18;13.20;99.90
52859;DHT22;38721;53.098;6.596;2023-05-10T08:30:43;13.20;99.90
52859;DHT22;38721;53.098;6.596;2023-05-10T08:33:09;13.10;99.90
52859;DHT22;38721;53.098;6.596;2023-05-10T08:35:35;13.00;99.90
52859;DHT22;38721;53.098;6.596;2023-05-10T08:38:03;13.10;99.90
52859;DHT22;38721;53.098;6.596;2023-05-10T08:40:29;13.00;99.90
52859;DHT22;38721;53.098;6.596;2023-05-10T08:43:21;13.10;99.90
52859;DHT22;38721;53.098;6.596;2023-05-10T08:45:49;13.10;99.90
52859;DHT22;38721;53.098;6.596;2023-05-10T08:48:15;13.00;99.90
52859;DHT22;38721;53.098;6.596;2023-05-10T08:50:42;13.10;99.90
52859;DHT22;38721;53.098;6.596;2023-05-10T08:53:12;13.10;99.90
52859;DHT22;38721;53.098;6.596;2023-05-10T08:55:39;13.10;99.90
52859;DHT22;38721;53.098;6.596;2023-05-10T08:58:06;13.10;99.90
52859;DHT22;38721;53.098;6.596;2023-05-10T09:00:32;13.20;99.90
52859;DHT22;38721;53.098;6.596;2023-05-10T09:02:58;13.20;99.90
52859;DHT22;38721;53.098;6.596;2023-05-10T09:05:24;13.40;99.90
52859;DHT22;38721;53.098;6.596;2023-05-10T09:07:50;13.40;99.90
52859;DHT22;38721;53.098;6.596;2023-05-10T09:10:16;13.40;99.90
52859;DHT22;38721;53.098;6.596;2023-05-10T09:12:43;13.40;99.90
52859;DHT22;38721;53.098;6.596;2023-05-10T09:15:10;13.50;99.90
52859;DHT22;38721;53.098;6.596;2023-05-10T09:17:38;13.70;99.90
52859;DHT22;38721;53.098;6.596;2023-05-10T09:20:06;13.60;99.90
52859;DHT22;38721;53.098;6.596;2023-05-10T09:22:31;13.70;99.90
52859;DHT22;38721;53.098;6.596;2023-05-10T09:27:30;13.70;99.90
52859;DHT22;38721;53.098;6.596;2023-05-10T09:29:56;13.80;99.90
52859;DHT22;38721;53.098;6.596;2023-05-10T09:32:21;13.90;99.90
52859;DHT22;38721;53.098;6.596;2023-05-10T09:34:49;14.10;99.90
52859;DHT22;38721;53.098;6.596;2023-05-10T09:37:15;13.90;99.90
52859;DHT22;38721;53.098;6.596;2023-05-10T09:39:41;14.00;99.90
52859;DHT22;38721;53.098;6.596;2023-05-10T09:42:08;13.80;99.90
52859;DHT22;38721;53.098;6.596;2023-05-10T09:44:35;13.80;99.90
52859;DHT22;38721;53.098;6.596;2023-05-10T09:47:02;13.80;99.90
52859;DHT22;38721;53.098;6.596;2023-05-10T09:49:28;13.80;99.90
52859;DHT22;38721;53.098;6.596;2023-05-10T09:54:27;14.00;99.90
52859;DHT22;38721;53.098;6.596;2023-05-10T09:56:52;14.10;99.90
52859;DHT22;38721;53.098;6.596;2023-05-10T09:59:18;14.10;99.90
52859;DHT22;38721;53.098;6.596;2023-05-10T10:01:55;14.00;99.90
52859;DHT22;38721;53.098;6.596;2023-05-10T10:04:21;14.20;99.90
52859;DHT22;38721;53.098;6.596;2023-05-10T10:07:06;14.50;99.90
52859;DHT22;38721;53.098;6.596;2023-05-10T10:09:33;14.80;99.90
52859;DHT22;38721;53.098;6.596;2023-05-10T10:12:03;14.70;99.90
52859;DHT22;38721;53.098;6.596;2023-05-10T10:14:30;14.60;99.90
52859;DHT22;38721;53.098;6.596;2023-05-10T10:16:55;14.40;99.90
52859;DHT22;38721;53.098;6.596;2023-05-10T10:19:21;14.30;99.90
52859;DHT22;38721;53.098;6.596;2023-05-10T10:21:50;14.30;99.90
52859;DHT22;38721;53.098;6.596;2023-05-10T10:24:16;14.40;99.90
52859;DHT22;38721;53.098;6.596;2023-05-10T10:26:42;14.70;99.90
52859;DHT22;38721;53.098;6.596;2023-05-10T10:34:46;15.20;99.90
52859;DHT22;38721;53.098;6.596;2023-05-10T10:37:12;15.00;99.90
52859;DHT22;38721;53.098;6.596;2023-05-10T10:39:38;14.70;99.90
52859;DHT22;38721;53.098;6.596;2023-05-10T10:42:04;14.70;99.90
52859;DHT22;38721;53.098;6.596;2023-05-10T10:44:34;14.50;99.90
52859;DHT22;38721;53.098;6.596;2023-05-10T10:50:04;14.50;99.90
52859;DHT22;38721;53.098;6.596;2023-05-10T10:52:40;14.50;99.90
52859;DHT22;38721;53.098;6.596;2023-05-10T10:55:14;14.60;99.90
52859;DHT22;38721;53.098;6.596;2023-05-10T11:00:32;14.80;99.90
52859;DHT22;38721;53.098;6.596;2023-05-10T11:03:10;15.00;99.90
52859;DHT22;38721;53.098;6.596;2023-05-10T11:10:38;14.90;99.90
52859;DHT22;38721;53.098;6.596;2023-05-10T11:13:05;15.00;99.90
52859;DHT22;38721;53.098;6.596;2023-05-10T11:15:36;15.10;99.90
52859;DHT22;38721;53.098;6.596;2023-05-10T11:20:59;15.20;99.90
52859;DHT22;38721;53.098;6.596;2023-05-10T11:23:47;15.20;99.90
52859;DHT22;38721;53.098;6.596;2023-05-10T11:26:13;15.10;99.90
52859;DHT22;38721;53.098;6.596;2023-05-10T11:28:47;15.10;99.90
52859;DHT22;38721;53.098;6.596;2023-05-10T11:31:14;15.00;99.90
52859;DHT22;38721;53.098;6.596;2023-05-10T11:33:52;14.80;99.90
52859;DHT22;38721;53.098;6.596;2023-05-10T11:36:20;14.70;99.90
52859;DHT22;38721;53.098;6.596;2023-05-10T11:38:46;14.80;99.90
52859;DHT22;38721;53.098;6.596;2023-05-10T11:41:13;14.70;99.90
52859;DHT22;38721;53.098;6.596;2023-05-10T11:43:39;14.80;99.90
52859;DHT22;38721;53.098;6.596;2023-05-10T11:46:06;14.70;99.90
52859;DHT22;38721;53.098;6.596;2023-05-10T11:48:32;14.80;99.90
52859;DHT22;38721;53.098;6.596;2023-05-10T11:50:58;14.60;99.90
52859;DHT22;38721;53.098;6.596;2023-05-10T11:53:26;14.70;99.90
52859;DHT22;38721;53.098;6.596;2023-05-10T11:55:52;14.80;99.90
52859;DHT22;38721;53.098;6.596;2023-05-10T11:58:20;14.90;99.90
52859;DHT22;38721;53.098;6.596;2023-05-10T12:00:48;15.00;99.90
52859;DHT22;38721;53.098;6.596;2023-05-10T12:03:14;15.00;99.90
52859;DHT22;38721;53.098;6.596;2023-05-10T12:05:40;15.00;99.90
52859;DHT22;38721;53.098;6.596;2023-05-10T12:08:14;14.90;99.90
52859;DHT22;38721;53.098;6.596;2023-05-10T12:10:41;15.10;99.90
52859;DHT22;38721;53.098;6.596;2023-05-10T12:13:11;15.00;99.90
52859;DHT22;38721;53.098;6.596;2023-05-10T12:15:42;14.80;99.90
52859;DHT22;38721;53.098;6.596;2023-05-10T12:18:09;14.90;99.90
52859;DHT22;38721;53.098;6.596;2023-05-10T12:20:36;15.10;99.90
52859;DHT22;38721;53.098;6.596;2023-05-10T12:23:02;15.10;99.90
52859;DHT22;38721;53.098;6.596;2023-05-10T12:25:33;15.40;99.90
52859;DHT22;38721;53.098;6.596;2023-05-10T12:28:02;15.40;99.90
52859;DHT22;38721;53.098;6.596;2023-05-10T12:30:31;15.50;99.90
52859;DHT22;38721;53.098;6.596;2023-05-10T12:33:02;15.60;99.90
52859;DHT22;38721;53.098;6.596;2023-05-10T12:35:32;15.70;99.90
52859;DHT22;38721;53.098;6.596;2023-05-10T12:37:57;15.70;99.90
52859;DHT22;38721;53.098;6.596;2023-05-10T12:40:23;15.80;99.90
52859;DHT22;38721;53.098;6.596;2023-05-10T12:42:51;15.70;99.90
52859;DHT22;38721;53.098;6.596;2023-05-10T12:45:19;15.70;99.90
52859;DHT22;38721;53.098;6.596;2023-05-10T12:47:44;15.60;99.90
52859;DHT22;38721;53.098;6.596;2023-05-10T12:50:10;15.70;99.90
52859;DHT22;38721;53.098;6.596;2023-05-10T12:52:36;15.70;99.90
52859;DHT22;38721;53.098;6.596;2023-05-10T12:55:02;15.60;99.90
52859;DHT22;38721;53.098;6.596;2023-05-10T12:57:31;15.80;99.90
52859;DHT22;38721;53.098;6.596;2023-05-10T12:59:57;15.80;99.90
52859;DHT22;38721;53.098;6.596;2023-05-10T13:02:23;15.70;99.90
52859;DHT22;38721;53.098;6.596;2023-05-10T13:04:49;15.60;99.90
52859;DHT22;38721;53.098;6.596;2023-05-10T13:07:15;15.80;99.90
52859;DHT22;38721;53.098;6.596;2023-05-10T13:09:40;15.80;99.90
52859;DHT22;38721;53.098;6.596;2023-05-10T13:12:06;15.70;99.90
52859;DHT22;38721;53.098;6.596;2023-05-10T13:14:32;15.80;99.90
52859;DHT22;38721;53.098;6.596;2023-05-10T13:16:57;15.80;99.90
52859;DHT22;38721;53.098;6.596;2023-05-10T13:19:23;15.90;99.90
52859;DHT22;38721;53.098;6.596;2023-05-10T13:21:48;16.00;99.90
52859;DHT22;38721;53.098;6.596;2023-05-10T13:24:14;16.00;99.90
52859;DHT22;38721;53.098;6.596;2023-05-10T13:26:40;16.10;99.90
52859;DHT22;38721;53.098;6.596;2023-05-10T13:29:06;16.10;99.90
52859;DHT22;38721;53.098;6.596;2023-05-10T13:31:33;16.20;99.90
52859;DHT22;38721;53.098;6.596;2023-05-10T13:33:59;16.10;99.90
52859;DHT22;38721;53.098;6.596;2023-05-10T13:36:27;15.90;99.90
52859;DHT22;38721;53.098;6.596;2023-05-10T13:38:53;16.00;99.90
52859;DHT22;38721;53.098;6.596;2023-05-10T13:41:19;15.90;99.90
52859;DHT22;38721;53.098;6.596;2023-05-10T13:43:44;15.90;99.90
52859;DHT22;38721;53.098;6.596;2023-05-10T13:46:10;16.00;99.90
52859;DHT22;38721;53.098;6.596;2023-05-10T13:48:35;16.00;99.90
52859;DHT22;38721;53.098;6.596;2023-05-10T13:51:02;15.70;99.90
52859;DHT22;38721;53.098;6.596;2023-05-10T13:53:28;15.70;99.90
52859;DHT22;38721;53.098;6.596;2023-05-10T13:55:54;15.60;99.90
52859;DHT22;38721;53.098;6.596;2023-05-10T13:58:19;15.60;99.90
52859;DHT22;38721;53.098;6.596;2023-05-10T14:00:45;15.50;99.90
52859;DHT22;38721;53.098;6.596;2023-05-10T14:03:11;15.40;99.90
52859;DHT22;38721;53.098;6.596;2023-05-10T14:05:36;15.50;99.90
52859;DHT22;38721;53.098;6.596;2023-05-10T14:08:02;15.40;99.90
52859;DHT22;38721;53.098;6.596;2023-05-10T14:10:28;15.60;99.90
52859;DHT22;38721;53.098;6.596;2023-05-10T14:12:54;15.80;99.90
52859;DHT22;38721;53.098;6.596;2023-05-10T14:15:19;15.80;99.90
52859;DHT22;38721;53.098;6.596;2023-05-10T14:17:45;15.90;99.90
52859;DHT22;38721;53.098;6.596;2023-05-10T14:20:11;16.10;99.90
52859;DHT22;38721;53.098;6.596;2023-05-10T14:22:36;16.10;99.90
52859;DHT22;38721;53.098;6.596;2023-05-10T14:25:02;16.10;99.90
52859;DHT22;38721;53.098;6.596;2023-05-10T14:27:28;16.20;99.90
52859;DHT22;38721;53.098;6.596;2023-05-10T14:29:54;16.20;99.90
52859;DHT22;38721;53.098;6.596;2023-05-10T14:32:20;16.40;99.90
52859;DHT22;38721;53.098;6.596;2023-05-10T14:34:45;16.40;99.90
52859;DHT22;38721;53.098;6.596;2023-05-10T14:37:13;16.50;99.90
52859;DHT22;38721;53.098;6.596;2023-05-10T14:39:39;16.50;99.90
52859;DHT22;38721;53.098;6.596;2023-05-10T14:42:04;16.60;99.90
52859;DHT22;38721;53.098;6.596;2023-05-10T14:44:30;16.80;99.90
52859;DHT22;38721;53.098;6.596;2023-05-10T14:46:56;16.80;99.90
52859;DHT22;38721;53.098;6.596;2023-05-10T14:49:22;17.00;99.90
52859;DHT22;38721;53.098;6.596;2023-05-10T14:51:50;16.80;99.90
52859;DHT22;38721;53.098;6.596;2023-05-10T14:54:16;16.90;99.90
52859;DHT22;38721;53.098;6.596;2023-05-10T14:56:42;16.60;99.90
52859;DHT22;38721;53.098;6.596;2023-05-10T14:59:08;16.40;99.90
52859;DHT22;38721;53.098;6.596;2023-05-10T15:01:34;16.40;99.90
52859;DHT22;38721;53.098;6.596;2023-05-10T15:04:03;16.30;99.90
52859;DHT22;38721;53.098;6.596;2023-05-10T15:06:35;16.20;99.90
52859;DHT22;38721;53.098;6.596;2023-05-10T15:09:02;15.90;99.90
52859;DHT22;38721;53.098;6.596;2023-05-10T15:11:31;15.70;99.90
52859;DHT22;38721;53.098;6.596;2023-05-10T15:13:57;15.60;99.90
52859;DHT22;38721;53.098;6.596;2023-05-10T15:16:23;15.50;99.90
52859;DHT22;38721;53.098;6.596;2023-05-10T15:18:51;15.40;99.90
52859;DHT22;38721;53.098;6.596;2023-05-10T15:21:17;15.40;99.90
52859;DHT22;38721;53.098;6.596;2023-05-10T15:23:42;15.40;99.90
52859;DHT22;38721;53.098;6.596;2023-05-10T15:26:08;15.50;99.90
52859;DHT22;38721;53.098;6.596;2023-05-10T15:28:34;15.40;99.90
52859;DHT22;38721;53.098;6.596;2023-05-10T15:30:59;15.40;99.90
52859;DHT22;38721;53.098;6.596;2023-05-10T15:33:25;15.40;99.90
52859;DHT22;38721;53.098;6.596;2023-05-10T15:35:54;15.50;99.90
52859;DHT22;38721;53.098;6.596;2023-05-10T15:38:20;15.60;99.90
52859;DHT22;38721;53.098;6.596;2023-05-10T15:40:45;15.50;99.90
52859;DHT22;38721;53.098;6.596;2023-05-10T15:43:11;15.60;99.90
52859;DHT22;38721;53.098;6.596;2023-05-10T15:45:37;15.60;99.90
52859;DHT22;38721;53.098;6.596;2023-05-10T15:48:02;15.70;99.90
52859;DHT22;38721;53.098;6.596;2023-05-10T15:50:31;15.80;99.90
52859;DHT22;38721;53.098;6.596;2023-05-10T15:53:00;15.70;99.90
52859;DHT22;38721;53.098;6.596;2023-05-10T15:55:26;15.70;99.90
52859;DHT22;38721;53.098;6.596;2023-05-10T15:57:52;15.80;99.90
52859;DHT22;38721;53.098;6.596;2023-05-10T16:00:18;15.80;99.90
52859;DHT22;38721;53.098;6.596;2023-05-10T16:03:04;15.80;99.90
52859;DHT22;38721;53.098;6.596;2023-05-10T16:05:31;15.90;99.90
52859;DHT22;38721;53.098;6.596;2023-05-10T16:07:58;15.90;99.90
52859;DHT22;38721;53.098;6.596;2023-05-10T16:10:24;15.70;99.90